Time;durP1;ratioP1;P1;durP2;ratioP2;P2;SDS_P1;SDS_P2;PMS_P1;PMS_P2;Temp;Humidity;BMP_temperature;BMP_pressure;BME280_temperature;BME280_humidity;BME280_pressure;Samples;Min_cycle;Max_cycle;Signal;HPM_P1;HPM_P2
2021/01/20 00:00:40;;;;;;;25.38;14.77;;;;;;;;;;4886270;29;20043;-22
2021/01/20 00:03:05;;;;;;;24.55;14.18;;;;;;;;;;4903294;29;20029;-23
2021/01/20 00:05:31;;;;;;;28.60;15.35;;;;;;;;;;4903096;29;20100;-22
2021/01/20 00:07:56;;;;;;;25.75;14.00;;;;;;;;;;4902920;29;20031;-24
2021/01/20 00:10:22;;;;;;;25.90;13.93;;;;;;;;;;4903114;29;20036;-23
2021/01/20 00:12:48;;;;;;;23.75;13.38;;;;;;;;;;4903190;29;20052;-23
2021/01/20 00:15:16;;;;;;;26.77;13.98;;;;;;;;;;4903000;29;20040;-23
2021/01/20 00:17:42;;;;;;;26.88;13.52;;;;;;;;;;4886093;29;20444;-23
2021/01/20 00:20:08;;;;;;;25.00;12.93;;;;;;;;;;4902841;29;20028;-23
2021/01/20 00:22:33;;;;;;;23.70;13.25;;;;;;;;;;4886157;29;20080;-23
2021/01/20 00:24:59;;;;;;;22.65;13.73;;;;;;;;;;4902940;29;20029;-23
2021/01/20 00:27:24;;;;;;;23.90;14.20;;;;;;;;;;4885929;29;20042;-22
2021/01/20 00:29:50;;;;;;;24.00;13.27;;;;;;;;;;4902893;29;20048;-23
2021/01/20 00:32:15;;;;;;;29.67;14.68;;;;;;;;;;4899377;29;20056;-22
2021/01/20 00:34:40;;;;;;;23.20;13.77;;;;;;;;;;4899875;29;20052;-23
2021/01/20 00:37:06;;;;;;;25.02;13.85;;;;;;;;;;4899742;29;20039;-21
2021/01/20 00:39:31;;;;;;;29.23;13.95;;;;;;;;;;4899930;29;20172;-24
2021/01/20 00:41:57;;;;;;;24.13;12.65;;;;;;;;;;4899677;29;20032;-24
2021/01/20 00:44:22;;;;;;;22.40;13.10;;;;;;;;;;4898462;29;20040;-23
2021/01/20 00:46:48;;;;;;;25.38;12.23;;;;;;;;;;4899848;29;20031;-23
2021/01/20 00:49:13;;;;;;;21.90;11.90;;;;;;;;;;4899704;29;20123;-23
2021/01/20 00:51:39;;;;;;;21.33;10.98;;;;;;;;;;4882826;29;20039;-23
2021/01/20 00:54:04;;;;;;;21.77;13.15;;;;;;;;;;4899449;29;20512;-23
2021/01/20 00:56:31;;;;;;;24.30;12.07;;;;;;;;;;4898166;29;20061;-23
2021/01/20 00:58:56;;;;;;;23.15;13.13;;;;;;;;;;4899336;29;20033;-23
2021/01/20 01:01:22;;;;;;;23.25;12.85;;;;;;;;;;4899798;29;20033;-23
2021/01/20 01:03:47;;;;;;;21.42;11.13;;;;;;;;;;4882331;29;20051;-22
2021/01/20 01:06:14;;;;;;;25.75;13.57;;;;;;;;;;4898118;29;20036;-23
2021/01/20 01:08:39;;;;;;;20.20;12.60;;;;;;;;;;4882429;29;20021;-23
2021/01/20 01:11:05;;;;;;;25.92;13.00;;;;;;;;;;4882280;29;20453;-23
2021/01/20 01:13:40;;;;;;;23.75;12.65;;;;;;;;;;4882334;29;20060;-23
2021/01/20 01:16:32;;;;;;;24.35;13.15;;;;;;;;;;4883755;29;20040;-23
2021/01/20 01:18:59;;;;;;;20.77;12.60;;;;;;;;;;4882134;29;20028;-23
2021/01/20 01:21:24;;;;;;;19.90;11.57;;;;;;;;;;4899139;29;20033;-23
2021/01/20 01:23:50;;;;;;;18.27;10.98;;;;;;;;;;4882078;29;20052;-24
2021/01/20 01:26:15;;;;;;;24.50;13.15;;;;;;;;;;4882116;29;20036;-23
2021/01/20 01:28:42;;;;;;;17.73;11.85;;;;;;;;;;4882147;29;20103;-23
2021/01/20 01:31:21;;;;;;;19.45;10.68;;;;;;;;;;4881806;29;20045;-24
2021/01/20 01:33:46;;;;;;;19.05;11.23;;;;;;;;;;4881893;29;20045;-23
2021/01/20 01:36:12;;;;;;;23.08;12.23;;;;;;;;;;4866512;29;20039;-22
2021/01/20 01:38:37;;;;;;;20.15;12.30;;;;;;;;;;4866440;29;20119;-24
2021/01/20 01:41:08;;;;;;;23.70;12.65;;;;;;;;;;4881872;29;20050;-24
2021/01/20 01:43:52;;;;;;;20.88;11.68;;;;;;;;;;4896981;29;20034;-23
2021/01/20 01:46:22;;;;;;;24.35;12.13;;;;;;;;;;4898637;29;20104;-24
2021/01/20 01:49:11;;;;;;;20.75;12.00;;;;;;;;;;4884512;29;20048;-24
2021/01/20 01:51:36;;;;;;;21.55;12.23;;;;;;;;;;4881724;29;20484;-23
2021/01/20 01:54:21;;;;;;;24.75;14.10;;;;;;;;;;4898512;29;20096;-23
2021/01/20 01:56:46;;;;;;;22.00;12.88;;;;;;;;;;4898308;29;20462;-22
2021/01/20 01:59:15;;;;;;;23.08;11.90;;;;;;;;;;4881508;29;20036;-23
2021/01/20 02:01:43;;;;;;;21.02;12.77;;;;;;;;;;4881535;29;20028;-23
2021/01/20 02:04:12;;;;;;;21.90;11.98;;;;;;;;;;4896956;29;20039;-24
2021/01/20 02:06:44;;;;;;;20.40;11.90;;;;;;;;;;4881335;29;20624;-24
2021/01/20 02:09:36;;;;;;;21.83;13.25;;;;;;;;;;4895245;29;20045;-24
2021/01/20 02:12:21;;;;;;;23.48;11.55;;;;;;;;;;4896777;29;20123;-22
2021/01/20 02:14:50;;;;;;;18.90;10.45;;;;;;;;;;4881129;29;20040;-24
2021/01/20 02:17:45;;;;;;;20.27;11.88;;;;;;;;;;4866996;29;20029;-23
2021/01/20 02:20:20;;;;;;;25.77;13.80;;;;;;;;;;4876605;29;20036;-23
2021/01/20 02:22:47;;;;;;;22.45;12.73;;;;;;;;;;4897875;29;20037;-23
2021/01/20 02:25:40;;;;;;;22.42;11.85;;;;;;;;;;4883706;29;20099;-23
2021/01/20 02:28:21;;;;;;;17.85;11.75;;;;;;;;;;4881019;29;20032;-24
2021/01/20 02:31:05;;;;;;;21.45;11.73;;;;;;;;;;4897609;29;20059;-24
2021/01/20 02:33:35;;;;;;;23.23;11.68;;;;;;;;;;4880894;29;20021;-23
2021/01/20 02:36:31;;;;;;;22.42;12.43;;;;;;;;;;4891096;29;20043;-23
2021/01/20 02:39:23;;;;;;;22.37;11.03;;;;;;;;;;4897717;29;20072;-24
2021/01/20 02:42:04;;;;;;;21.45;12.65;;;;;;;;;;4880780;29;20614;-23
2021/01/20 02:44:40;;;;;;;20.63;12.20;;;;;;;;;;4880761;29;20032;-24
2021/01/20 02:47:28;;;;;;;23.95;11.82;;;;;;;;;;4892305;29;20055;-24
2021/01/20 02:49:58;;;;;;;24.17;13.00;;;;;;;;;;4880580;29;20033;-24
2021/01/20 02:52:27;;;;;;;21.70;11.85;;;;;;;;;;4880881;29;20502;-24
2021/01/20 02:55:12;;;;;;;23.95;13.00;;;;;;;;;;4896847;29;20650;-24
2021/01/20 02:58:08;;;;;;;24.17;12.57;;;;;;;;;;4846125;29;20524;-25
2021/01/20 03:00:44;;;;;;;24.85;12.05;;;;;;;;;;4880554;29;20085;-25
2021/01/20 03:03:09;;;;;;;24.35;13.20;;;;;;;;;;4897635;29;20073;-24
2021/01/20 03:05:36;;;;;;;25.77;13.43;;;;;;;;;;4897524;29;20465;-25
2021/01/20 03:08:02;;;;;;;24.13;12.40;;;;;;;;;;4897193;29;20036;-25
2021/01/20 03:10:28;;;;;;;26.05;13.23;;;;;;;;;;4897322;29;20040;-25
2021/01/20 03:12:53;;;;;;;24.00;13.52;;;;;;;;;;4897516;29;20115;-25
2021/01/20 03:15:23;;;;;;;23.10;12.70;;;;;;;;;;4897430;29;20048;-24
2021/01/20 03:17:49;;;;;;;24.98;13.05;;;;;;;;;;4897261;29;20037;-25
2021/01/20 03:20:15;;;;;;;28.00;13.15;;;;;;;;;;4897372;29;20535;-25
2021/01/20 03:22:40;;;;;;;25.83;12.38;;;;;;;;;;4897521;29;20037;-24
2021/01/20 03:25:06;;;;;;;23.20;13.70;;;;;;;;;;4897314;29;20408;-23
2021/01/20 03:27:31;;;;;;;25.30;12.93;;;;;;;;;;4897441;29;20081;-24
2021/01/20 03:29:56;;;;;;;22.50;13.25;;;;;;;;;;4897118;29;20131;-23
2021/01/20 03:32:22;;;;;;;22.65;12.43;;;;;;;;;;4896531;29;20140;-24
2021/01/20 03:34:47;;;;;;;24.02;11.93;;;;;;;;;;4897236;29;20059;-23
2021/01/20 03:37:12;;;;;;;18.40;11.18;;;;;;;;;;4896976;29;20036;-24
2021/01/20 03:39:37;;;;;;;19.25;11.57;;;;;;;;;;4896779;29;20524;-23
2021/01/20 03:42:03;;;;;;;18.75;11.43;;;;;;;;;;4897302;29;20037;-24
2021/01/20 03:44:28;;;;;;;21.15;11.80;;;;;;;;;;4897264;29;20048;-23
2021/01/20 03:46:54;;;;;;;25.10;13.07;;;;;;;;;;4896839;29;20056;-24
2021/01/20 03:49:19;;;;;;;21.85;12.75;;;;;;;;;;4896005;29;20067;-24
2021/01/20 03:51:47;;;;;;;21.08;11.90;;;;;;;;;;4880239;29;20036;-23
2021/01/20 03:54:13;;;;;;;23.23;12.38;;;;;;;;;;4880010;29;20052;-23
2021/01/20 03:56:39;;;;;;;19.52;12.32;;;;;;;;;;4897113;29;20499;-24
2021/01/20 03:59:05;;;;;;;18.65;11.60;;;;;;;;;;4880126;29;20028;-24
2021/01/20 04:01:30;;;;;;;18.52;11.75;;;;;;;;;;4897097;29;20088;-24
2021/01/20 04:03:55;;;;;;;24.42;12.15;;;;;;;;;;4879863;29;20056;-23
2021/01/20 04:06:24;;;;;;;21.17;11.93;;;;;;;;;;4897380;29;20032;-23
2021/01/20 04:08:50;;;;;;;21.75;11.32;;;;;;;;;;4900315;29;20160;-23
2021/01/20 04:11:16;;;;;;;23.40;11.38;;;;;;;;;;4900343;29;20037;-23
2021/01/20 04:13:41;;;;;;;24.17;12.43;;;;;;;;;;4900299;29;20032;-23
2021/01/20 04:16:07;;;;;;;23.10;11.93;;;;;;;;;;4898806;29;20036;-23
2021/01/20 04:18:32;;;;;;;19.02;10.68;;;;;;;;;;4900506;29;20384;-23
2021/01/20 04:20:57;;;;;;;20.45;11.38;;;;;;;;;;4900078;29;20052;-23
2021/01/20 04:23:23;;;;;;;17.95;11.57;;;;;;;;;;4883170;29;20420;-24
2021/01/20 04:25:48;;;;;;;22.70;11.90;;;;;;;;;;4900103;29;20032;-23
2021/01/20 04:28:13;;;;;;;21.25;11.52;;;;;;;;;;4898730;29;20029;-23
2021/01/20 04:30:39;;;;;;;20.40;11.40;;;;;;;;;;4899852;29;20132;-23
2021/01/20 04:33:04;;;;;;;18.95;10.75;;;;;;;;;;4883117;29;20123;-23
2021/01/20 04:35:30;;;;;;;20.48;11.30;;;;;;;;;;4899815;29;20448;-23
2021/01/20 04:37:55;;;;;;;21.77;11.60;;;;;;;;;;4899837;29;20032;-23
2021/01/20 04:40:21;;;;;;;22.00;11.68;;;;;;;;;;4898616;29;20040;-23
2021/01/20 04:42:46;;;;;;;18.60;10.75;;;;;;;;;;4882983;29;20057;-23
2021/01/20 04:45:12;;;;;;;16.30;11.00;;;;;;;;;;4882617;29;20077;-23
2021/01/20 04:47:38;;;;;;;20.13;11.80;;;;;;;;;;4899744;29;20485;-23
2021/01/20 04:50:05;;;;;;;25.65;12.18;;;;;;;;;;4899593;29;20040;-23
2021/01/20 04:52:31;;;;;;;18.85;12.00;;;;;;;;;;4882802;29;20043;-23
2021/01/20 04:54:57;;;;;;;21.75;12.70;;;;;;;;;;4899445;29;20123;-23
2021/01/20 04:57:23;;;;;;;20.42;11.65;;;;;;;;;;4899426;29;20169;-23
2021/01/20 04:59:50;;;;;;;19.08;12.38;;;;;;;;;;4899723;29;20115;-23
2021/01/20 05:02:16;;;;;;;18.25;11.63;;;;;;;;;;4899436;29;20087;-23
2021/01/20 05:04:41;;;;;;;23.38;10.73;;;;;;;;;;4899395;29;20187;-23
2021/01/20 05:07:07;;;;;;;20.52;12.23;;;;;;;;;;4882388;29;20147;-23
2021/01/20 05:09:33;;;;;;;20.48;11.25;;;;;;;;;;4899307;29;20037;-23
2021/01/20 05:11:59;;;;;;;16.17;10.45;;;;;;;;;;4882245;29;20029;-22
2021/01/20 05:14:24;;;;;;;18.85;10.55;;;;;;;;;;4899181;29;20095;-22
2021/01/20 05:16:52;;;;;;;19.63;11.02;;;;;;;;;;4899118;29;20116;-22
2021/01/20 05:19:37;;;;;;;22.52;11.50;;;;;;;;;;4882090;29;20029;-22
2021/01/20 05:22:04;;;;;;;19.83;10.65;;;;;;;;;;4881762;29;20041;-23
2021/01/20 05:24:30;;;;;;;17.48;10.48;;;;;;;;;;4899125;29;20040;-23
2021/01/20 05:26:55;;;;;;;21.27;10.63;;;;;;;;;;4898862;29;20028;-23
2021/01/20 05:29:21;;;;;;;19.20;10.80;;;;;;;;;;4897798;29;20115;-22
2021/01/20 05:31:46;;;;;;;19.75;10.50;;;;;;;;;;4898790;29;20079;-23
2021/01/20 05:34:25;;;;;;;20.63;11.13;;;;;;;;;;4897553;29;20048;-23
2021/01/20 05:37:10;;;;;;;20.73;11.27;;;;;;;;;;4882035;29;20472;-22
2021/01/20 05:39:37;;;;;;;23.38;11.05;;;;;;;;;;4898797;29;20041;-23
2021/01/20 05:42:05;;;;;;;22.50;11.20;;;;;;;;;;4898700;29;20040;-22
2021/01/20 05:44:30;;;;;;;27.92;14.18;;;;;;;;;;4898733;29;20041;-23
2021/01/20 05:46:56;;;;;;;21.17;10.95;;;;;;;;;;4881581;29;20039;-23
2021/01/20 05:49:23;;;;;;;24.27;13.18;;;;;;;;;;4898651;29;20033;-22
2021/01/20 05:51:50;;;;;;;19.30;11.02;;;;;;;;;;4898572;29;20024;-22
2021/01/20 05:54:28;;;;;;;25.63;11.50;;;;;;;;;;4898593;29;20132;-23
2021/01/20 05:56:53;;;;;;;19.45;9.98;;;;;;;;;;4898502;29;20028;-23
2021/01/20 05:59:24;;;;;;;23.33;13.73;;;;;;;;;;4898978;29;20065;-23
2021/01/20 06:01:50;;;;;;;18.60;11.30;;;;;;;;;;4898475;29;20036;-23
2021/01/20 06:04:15;;;;;;;21.48;13.30;;;;;;;;;;4898339;29;20084;-23
2021/01/20 06:06:40;;;;;;;18.00;11.55;;;;;;;;;;4898215;29;20052;-23
2021/01/20 06:09:07;;;;;;;18.83;10.40;;;;;;;;;;4897949;29;20032;-23
2021/01/20 06:11:33;;;;;;;17.55;10.63;;;;;;;;;;4898249;29;20480;-23
2021/01/20 06:14:00;;;;;;;18.77;10.07;;;;;;;;;;4897989;29;20100;-26
2021/01/20 06:16:28;;;;;;;18.77;10.50;;;;;;;;;;4897839;29;20037;-23
2021/01/20 06:19:01;;;;;;;22.17;11.35;;;;;;;;;;4898043;29;20499;-23
2021/01/20 06:21:27;;;;;;;18.10;10.20;;;;;;;;;;4897963;29;20079;-22
2021/01/20 06:24:08;;;;;;;17.85;10.90;;;;;;;;;;4898029;29;20079;-22
2021/01/20 06:26:35;;;;;;;19.88;10.68;;;;;;;;;;4897951;29;20476;-23
2021/01/20 06:29:03;;;;;;;18.52;10.13;;;;;;;;;;4897246;29;20032;-23
2021/01/20 06:31:29;;;;;;;19.95;10.73;;;;;;;;;;4880691;29;20057;-21
2021/01/20 06:33:55;;;;;;;17.50;8.98;;;;;;;;;;4897224;29;20041;-21
2021/01/20 06:36:33;;;;;;;18.92;9.93;;;;;;;;;;4897960;29;20032;-22
2021/01/20 06:38:59;;;;;;;19.85;9.90;;;;;;;;;;4897683;29;20039;-22
2021/01/20 06:41:36;;;;;;;17.95;10.02;;;;;;;;;;4896932;29;20028;-23
2021/01/20 06:44:09;;;;;;;13.45;9.63;;;;;;;;;;4880624;29;20071;-23
2021/01/20 06:46:34;;;;;;;16.20;9.23;;;;;;;;;;4897128;29;20032;-22
2021/01/20 06:49:00;;;;;;;17.08;10.32;;;;;;;;;;4897324;29;20381;-22
2021/01/20 06:51:26;;;;;;;15.48;8.63;;;;;;;;;;4896296;29;20030;-22
2021/01/20 06:54:09;;;;;;;13.30;9.18;;;;;;;;;;4897361;29;20029;-22
2021/01/20 06:56:37;;;;;;;20.38;9.98;;;;;;;;;;4897705;29;20050;-22
2021/01/20 06:59:21;;;;;;;18.13;10.30;;;;;;;;;;4896058;29;20047;-22
2021/01/20 07:02:02;;;;;;;30.55;14.35;;;;;;;;;;4897386;29;20547;-23
2021/01/20 07:04:37;;;;;;;17.42;9.75;;;;;;;;;;4897670;29;20043;-22
2021/01/20 07:07:09;;;;;;;18.15;9.95;;;;;;;;;;4880384;29;20044;-22
2021/01/20 07:09:49;;;;;;;18.35;9.95;;;;;;;;;;4897337;29;20032;-22
2021/01/20 07:12:21;;;;;;;23.13;12.77;;;;;;;;;;4897222;29;20045;-23
2021/01/20 07:14:47;;;;;;;17.02;9.60;;;;;;;;;;4897421;29;20380;-22
2021/01/20 07:17:12;;;;;;;13.55;8.73;;;;;;;;;;4897161;29;20032;-23
2021/01/20 07:19:38;;;;;;;15.18;9.55;;;;;;;;;;4880412;29;20044;-23
2021/01/20 07:22:04;;;;;;;21.23;11.77;;;;;;;;;;4897072;29;20021;-23
2021/01/20 07:24:30;;;;;;;31.88;15.18;;;;;;;;;;4897235;29;20369;-22
2021/01/20 07:26:55;;;;;;;23.80;12.38;;;;;;;;;;4897028;29;20072;-23
2021/01/20 07:29:24;;;;;;;18.60;10.85;;;;;;;;;;4880385;29;20031;-23
2021/01/20 07:31:50;;;;;;;46.58;21.33;;;;;;;;;;4897377;29;20100;-22
2021/01/20 07:34:16;;;;;;;21.77;12.05;;;;;;;;;;4896877;29;20044;-22
2021/01/20 07:36:43;;;;;;;29.75;14.80;;;;;;;;;;4895740;29;20029;-24
2021/01/20 07:39:22;;;;;;;20.20;10.63;;;;;;;;;;4895760;29;20132;-22
2021/01/20 07:41:56;;;;;;;17.05;10.38;;;;;;;;;;4882524;29;20420;-22
2021/01/20 07:44:22;;;;;;;17.85;10.63;;;;;;;;;;4899620;29;20028;-24
2021/01/20 07:47:00;;;;;;;15.15;9.48;;;;;;;;;;4900945;29;20039;-23
2021/01/20 07:49:26;;;;;;;17.15;10.00;;;;;;;;;;4900777;29;20064;-23
2021/01/20 07:52:07;;;;;;;20.75;10.95;;;;;;;;;;4900774;29;20082;-23
2021/01/20 07:54:39;;;;;;;16.42;10.23;;;;;;;;;;4900701;29;20044;-23
2021/01/20 07:57:09;;;;;;;22.63;10.30;;;;;;;;;;4900520;29;20028;-24
2021/01/20 07:59:35;;;;;;;21.33;10.95;;;;;;;;;;4900793;29;20033;-23
2021/01/20 08:02:06;;;;;;;16.83;10.23;;;;;;;;;;4883646;29;20385;-23
2021/01/20 08:04:32;;;;;;;19.67;10.77;;;;;;;;;;4900477;29;20033;-23
2021/01/20 08:06:57;;;;;;;21.48;11.48;;;;;;;;;;4883464;29;20112;-23
2021/01/20 08:09:35;;;;;;;16.08;9.68;;;;;;;;;;4900682;29;20040;-23
2021/01/20 08:12:02;;;;;;;16.20;9.32;;;;;;;;;;4900319;29;20087;-22
2021/01/20 08:14:27;;;;;;;19.02;10.52;;;;;;;;;;4900353;29;20036;-22
2021/01/20 08:16:53;;;;;;;16.20;9.43;;;;;;;;;;4900175;29;20060;-23
2021/01/20 08:19:19;;;;;;;17.98;8.82;;;;;;;;;;4900121;29;20123;-22
2021/01/20 08:21:45;;;;;;;21.58;9.48;;;;;;;;;;4900232;29;20033;-23
2021/01/20 08:24:10;;;;;;;17.02;9.07;;;;;;;;;;4900314;29;20048;-23
2021/01/20 08:26:36;;;;;;;17.02;9.88;;;;;;;;;;4899870;29;20203;-22
2021/01/20 08:29:06;;;;;;;17.20;10.20;;;;;;;;;;4899796;29;20029;-21
2021/01/20 08:31:31;;;;;;;14.05;9.77;;;;;;;;;;4899866;29;20059;-23
2021/01/20 08:34:15;;;;;;;13.73;9.07;;;;;;;;;;4883073;29;20472;-21
2021/01/20 08:36:50;;;;;;;17.15;9.55;;;;;;;;;;4900148;29;20040;-20
2021/01/20 08:39:16;;;;;;;19.38;9.50;;;;;;;;;;4882962;29;20037;-22
2021/01/20 08:41:41;;;;;;;17.40;9.65;;;;;;;;;;4899925;29;20361;-22
2021/01/20 08:44:16;;;;;;;14.27;8.38;;;;;;;;;;4899795;29;20072;-22
2021/01/20 08:46:41;;;;;;;18.42;10.15;;;;;;;;;;4899689;29;20040;-22
2021/01/20 08:49:07;;;;;;;18.10;9.60;;;;;;;;;;4898395;29;20028;-23
2021/01/20 08:51:32;;;;;;;14.75;8.88;;;;;;;;;;4899727;29;20039;-23
2021/01/20 08:54:11;;;;;;;16.52;8.70;;;;;;;;;;4898678;29;20047;-23
2021/01/20 08:56:36;;;;;;;16.80;8.77;;;;;;;;;;4899816;29;20039;-22
2021/01/20 08:59:02;;;;;;;15.65;8.98;;;;;;;;;;4898187;29;20040;-23
2021/01/20 09:01:28;;;;;;;15.30;8.93;;;;;;;;;;4899614;29;20080;-22
2021/01/20 09:03:55;;;;;;;17.15;8.75;;;;;;;;;;4899467;29;20081;-22
2021/01/20 09:06:20;;;;;;;14.02;9.57;;;;;;;;;;4899458;29;20043;-22
2021/01/20 09:08:46;;;;;;;15.55;9.50;;;;;;;;;;4882733;29;20103;-23
2021/01/20 09:11:11;;;;;;;15.07;9.40;;;;;;;;;;4882573;29;20043;-22
2021/01/20 09:13:37;;;;;;;17.58;9.10;;;;;;;;;;4899245;29;20029;-22
2021/01/20 09:16:02;;;;;;;16.90;10.20;;;;;;;;;;4899160;29;20120;-23
2021/01/20 09:18:28;;;;;;;14.50;9.35;;;;;;;;;;4899173;29;20115;-22
2021/01/20 09:20:54;;;;;;;16.80;10.00;;;;;;;;;;4899205;29;20032;-22
2021/01/20 09:23:21;;;;;;;17.48;10.18;;;;;;;;;;4882223;29;20029;-22
2021/01/20 09:25:47;;;;;;;20.52;10.90;;;;;;;;;;4899079;29;20031;-23
2021/01/20 09:28:12;;;;;;;17.13;9.43;;;;;;;;;;4898935;29;20176;-22
2021/01/20 09:30:38;;;;;;;20.92;10.57;;;;;;;;;;4898846;29;20542;-21
2021/01/20 09:33:04;;;;;;;15.25;9.73;;;;;;;;;;4898921;29;20028;-21
2021/01/20 09:35:29;;;;;;;17.45;10.48;;;;;;;;;;4897927;29;20420;-25
2021/01/20 09:37:55;;;;;;;18.10;10.73;;;;;;;;;;4556520;29;10000159;-22
2021/01/20 09:40:23;;;;;;;20.67;11.88;;;;;;;;;;4878253;29;20123;-25
2021/01/20 09:42:50;;;;;;;18.05;12.13;;;;;;;;;;4895366;29;20028;-24
2021/01/20 09:45:17;;;;;;;22.95;11.73;;;;;;;;;;4895263;29;20032;-25
2021/01/20 09:47:44;;;;;;;16.13;11.65;;;;;;;;;;4894996;29;20074;-25
2021/01/20 09:50:10;;;;;;;20.52;12.65;;;;;;;;;;4895619;29;20063;-25
2021/01/20 09:52:36;;;;;;;19.10;10.25;;;;;;;;;;4895481;29;20032;-24
2021/01/20 09:55:01;;;;;;;17.25;10.13;;;;;;;;;;4893853;29;20536;-25
2021/01/20 09:57:27;;;;;;;19.40;10.32;;;;;;;;;;4895071;29;20048;-24
2021/01/20 09:59:53;;;;;;;17.55;10.43;;;;;;;;;;4895011;29;20633;-24
2021/01/20 10:02:18;;;;;;;18.35;9.82;;;;;;;;;;4894899;29;20040;-24
2021/01/20 10:04:48;;;;;;;14.95;8.55;;;;;;;;;;4894793;29;20088;-25
2021/01/20 10:07:13;;;;;;;21.02;9.98;;;;;;;;;;4894981;29;20104;-25
2021/01/20 10:09:39;;;;;;;19.88;9.55;;;;;;;;;;4878282;29;20036;-24
2021/01/20 10:12:06;;;;;;;17.40;9.93;;;;;;;;;;4877861;29;20112;-24
2021/01/20 10:14:31;;;;;;;19.00;9.68;;;;;;;;;;4894924;29;20136;-24
2021/01/20 10:16:57;;;;;;;19.23;9.02;;;;;;;;;;4894927;29;20108;-25
2021/01/20 10:19:22;;;;;;;15.40;9.02;;;;;;;;;;4895149;29;20499;-23
2021/01/20 10:21:48;;;;;;;20.95;9.98;;;;;;;;;;4894855;29;20028;-23
2021/01/20 10:24:13;;;;;;;16.75;8.88;;;;;;;;;;4894615;29;20465;-23
2021/01/20 10:26:39;;;;;;;19.08;9.93;;;;;;;;;;4877514;29;20104;-22
2021/01/20 10:29:05;;;;;;;14.80;9.32;;;;;;;;;;4894662;29;20060;-21
2021/01/20 10:31:38;;;;;;;18.80;10.13;;;;;;;;;;4894731;29;20100;-22
2021/01/20 10:34:04;;;;;;;18.88;10.95;;;;;;;;;;4894635;29;20044;-22
2021/01/20 10:36:30;;;;;;;17.52;9.18;;;;;;;;;;4894040;29;20025;-22
2021/01/20 10:38:55;;;;;;;14.95;9.90;;;;;;;;;;4894851;29;20092;-23
2021/01/20 10:41:21;;;;;;;19.67;10.38;;;;;;;;;;4897534;29;20059;-22
2021/01/20 10:43:47;;;;;;;17.80;10.32;;;;;;;;;;4913574;29;20523;-23
2021/01/20 10:46:14;;;;;;;20.52;11.15;;;;;;;;;;4913359;29;20464;-21
2021/01/20 10:48:39;;;;;;;18.52;10.57;;;;;;;;;;4912891;29;20570;-23
2021/01/20 10:51:05;;;;;;;17.98;11.20;;;;;;;;;;4913018;29;20040;-22
2021/01/20 10:53:31;;;;;;;21.58;11.45;;;;;;;;;;4913196;29;20036;-22
2021/01/20 10:55:57;;;;;;;21.15;11.93;;;;;;;;;;4913223;29;20388;-22
2021/01/20 10:58:22;;;;;;;20.98;12.63;;;;;;;;;;4913042;29;20377;-22
2021/01/20 11:00:50;;;;;;;19.35;10.50;;;;;;;;;;4912467;29;20034;-24
2021/01/20 11:03:16;;;;;;;17.83;9.05;;;;;;;;;;4912915;29;20035;-23
2021/01/20 11:05:42;;;;;;;21.95;10.77;;;;;;;;;;4913019;29;20388;-22
2021/01/20 11:08:07;;;;;;;22.08;13.35;;;;;;;;;;4912747;29;20118;-23
2021/01/20 11:10:33;;;;;;;18.77;11.88;;;;;;;;;;4912858;29;20040;-23
2021/01/20 11:12:58;;;;;;;19.27;10.82;;;;;;;;;;4895283;29;20111;-23
2021/01/20 11:15:24;;;;;;;21.00;11.30;;;;;;;;;;4894954;29;20039;-23
2021/01/20 11:17:50;;;;;;;19.60;11.23;;;;;;;;;;4912827;29;20032;-24
2021/01/20 11:20:16;;;;;;;23.77;10.93;;;;;;;;;;4912739;29;20627;-23
2021/01/20 11:22:41;;;;;;;19.33;11.77;;;;;;;;;;4912852;29;20035;-22
2021/01/20 11:25:07;;;;;;;20.35;12.48;;;;;;;;;;4895715;29;20032;-23
2021/01/20 11:27:33;;;;;;;19.77;12.43;;;;;;;;;;4912447;29;20061;-23
2021/01/20 11:29:58;;;;;;;22.13;12.18;;;;;;;;;;4912391;29;20099;-23
2021/01/20 11:32:24;;;;;;;19.92;11.88;;;;;;;;;;4912338;29;20024;-24
2021/01/20 11:34:49;;;;;;;22.27;11.00;;;;;;;;;;4912811;29;20607;-23
2021/01/20 11:37:15;;;;;;;19.00;11.10;;;;;;;;;;4904750;29;20512;-23
2021/01/20 11:39:41;;;;;;;16.75;10.25;;;;;;;;;;4876994;29;20036;-24
2021/01/20 11:42:06;;;;;;;18.25;11.15;;;;;;;;;;4876808;29;20045;-24
2021/01/20 11:44:32;;;;;;;21.45;12.60;;;;;;;;;;4893805;29;20046;-23
2021/01/20 11:46:57;;;;;;;19.02;11.35;;;;;;;;;;4893790;29;20092;-22
2021/01/20 11:49:23;;;;;;;19.55;11.85;;;;;;;;;;4893357;29;20047;-24
2021/01/20 11:51:48;;;;;;;21.77;12.68;;;;;;;;;;4893734;29;20028;-23
2021/01/20 11:54:14;;;;;;;24.60;11.63;;;;;;;;;;4893318;29;20121;-23
2021/01/20 11:56:39;;;;;;;20.45;12.10;;;;;;;;;;4893700;29;20021;-23
2021/01/20 11:59:05;;;;;;;18.88;11.32;;;;;;;;;;4893560;29;20115;-23
2021/01/20 12:01:31;;;;;;;21.05;12.52;;;;;;;;;;4893213;29;20043;-24
2021/01/20 12:03:56;;;;;;;18.75;12.57;;;;;;;;;;4893461;29;20511;-23
2021/01/20 12:06:23;;;;;;;17.25;10.70;;;;;;;;;;4876858;29;20032;-23
2021/01/20 12:08:48;;;;;;;20.90;10.40;;;;;;;;;;4893820;29;20041;-23
2021/01/20 12:11:14;;;;;;;23.55;11.85;;;;;;;;;;4893519;29;20042;-23
2021/01/20 12:13:39;;;;;;;25.55;12.85;;;;;;;;;;4893628;29;20032;-23
2021/01/20 12:16:05;;;;;;;23.58;13.32;;;;;;;;;;4893556;29;20073;-23
2021/01/20 12:18:30;;;;;;;23.17;14.35;;;;;;;;;;4893427;29;20032;-23
2021/01/20 12:20:56;;;;;;;30.48;15.77;;;;;;;;;;4893739;29;20040;-22
2021/01/20 12:23:22;;;;;;;21.58;12.10;;;;;;;;;;4893376;29;20495;-22
2021/01/20 12:25:47;;;;;;;20.45;11.40;;;;;;;;;;4891554;29;20096;-23
2021/01/20 12:28:13;;;;;;;21.95;13.32;;;;;;;;;;4879195;29;20032;-23
2021/01/20 12:30:38;;;;;;;21.10;11.73;;;;;;;;;;4896812;29;20068;-24
2021/01/20 12:33:03;;;;;;;22.98;12.07;;;;;;;;;;4896723;29;20036;-23
2021/01/20 12:35:29;;;;;;;22.95;12.25;;;;;;;;;;4896849;29;20056;-23
2021/01/20 12:37:54;;;;;;;18.55;11.93;;;;;;;;;;4896173;29;20041;-22
2021/01/20 12:40:20;;;;;;;22.02;12.73;;;;;;;;;;4896409;29;20075;-22
2021/01/20 12:42:45;;;;;;;23.58;12.98;;;;;;;;;;4896461;29;20088;-28
2021/01/20 12:45:11;;;;;;;20.67;12.68;;;;;;;;;;4879006;29;20514;-22
2021/01/20 12:47:37;;;;;;;20.55;12.48;;;;;;;;;;4896102;29;20024;-22
2021/01/20 12:50:04;;;;;;;21.25;13.23;;;;;;;;;;4895577;29;20037;-23
2021/01/20 12:52:30;;;;;;;22.25;13.57;;;;;;;;;;4879041;29;20024;-21
2021/01/20 12:54:55;;;;;;;26.38;14.18;;;;;;;;;;4896108;29;20492;-23
2021/01/20 12:57:20;;;;;;;25.13;14.52;;;;;;;;;;4879399;29;20108;-23
2021/01/20 12:59:46;;;;;;;24.60;13.57;;;;;;;;;;4894110;29;20527;-23
2021/01/20 13:02:11;;;;;;;23.50;13.75;;;;;;;;;;4895666;29;20040;-21
2021/01/20 13:04:37;;;;;;;25.52;13.18;;;;;;;;;;4896478;29;20033;-22
2021/01/20 13:07:02;;;;;;;21.90;13.10;;;;;;;;;;4895671;29;20088;-22
2021/01/20 13:09:28;;;;;;;24.75;13.38;;;;;;;;;;4895832;29;20060;-23
2021/01/20 13:11:54;;;;;;;23.70;14.40;;;;;;;;;;4895303;29;20465;-22
2021/01/20 13:14:19;;;;;;;35.72;17.38;;;;;;;;;;4878346;29;20041;-23
2021/01/20 13:16:45;;;;;;;45.10;21.98;;;;;;;;;;4878959;29;20170;-23
2021/01/20 13:19:11;;;;;;;55.72;24.02;;;;;;;;;;4895582;29;20759;-24
2021/01/20 13:21:36;;;;;;;55.55;24.75;;;;;;;;;;4872565;29;20029;-23
2021/01/20 13:24:02;;;;;;;48.17;19.23;;;;;;;;;;4895221;29;20049;-23
2021/01/20 13:26:27;;;;;;;41.90;19.00;;;;;;;;;;4893795;29;20031;-22
2021/01/20 13:28:53;;;;;;;29.77;15.35;;;;;;;;;;4895267;29;20535;-23
2021/01/20 13:31:18;;;;;;;27.08;15.10;;;;;;;;;;4878026;29;20052;-24
2021/01/20 13:33:44;;;;;;;30.83;15.25;;;;;;;;;;4894203;29;20036;-25
2021/01/20 13:36:10;;;;;;;29.17;14.98;;;;;;;;;;4877913;29;20047;-23
2021/01/20 13:38:36;;;;;;;27.75;15.18;;;;;;;;;;4877498;29;20103;-24
2021/01/20 13:41:01;;;;;;;29.30;15.20;;;;;;;;;;4895585;29;20173;-31
2021/01/20 13:43:27;;;;;;;24.63;13.77;;;;;;;;;;4895497;29;20162;-23
2021/01/20 13:45:52;;;;;;;21.23;12.30;;;;;;;;;;4894820;29;20427;-23
2021/01/20 13:48:17;;;;;;;22.55;12.13;;;;;;;;;;4895187;29;20036;-22
2021/01/20 13:50:43;;;;;;;23.85;12.55;;;;;;;;;;4894569;29;20040;-22
2021/01/20 13:53:09;;;;;;;22.92;13.38;;;;;;;;;;4894859;29;20035;-23
2021/01/20 13:55:35;;;;;;;21.85;12.63;;;;;;;;;;4894787;29;20056;-22
2021/01/20 13:58:01;;;;;;;20.55;12.10;;;;;;;;;;4862027;29;20025;-22
2021/01/20 14:00:29;;;;;;;21.38;13.30;;;;;;;;;;4894444;29;20028;-24
2021/01/20 14:02:54;;;;;;;23.70;12.30;;;;;;;;;;4894931;29;20044;-22
2021/01/20 14:05:20;;;;;;;25.80;14.30;;;;;;;;;;4895047;29;20077;-23
2021/01/20 14:07:45;;;;;;;25.10;13.93;;;;;;;;;;4894854;29;20389;-22
2021/01/20 14:10:11;;;;;;;27.42;14.43;;;;;;;;;;4894654;29;20029;-23
2021/01/20 14:12:36;;;;;;;25.58;13.98;;;;;;;;;;4877409;29;20063;-23
2021/01/20 14:15:02;;;;;;;24.17;11.98;;;;;;;;;;4892727;29;20047;-23
2021/01/20 14:17:27;;;;;;;23.67;14.05;;;;;;;;;;4894396;29;20029;-22
2021/01/20 14:19:53;;;;;;;23.13;12.60;;;;;;;;;;4894483;29;20037;-22
2021/01/20 14:22:21;;;;;;;22.63;13.23;;;;;;;;;;4893297;29;20024;-23